Time;durP1;ratioP1;P1;durP2;ratioP2;P2;SDS_P1;SDS_P2;PMS_P1;PMS_P2;Temp;Humidity;BMP_temperature;BMP_pressure;BME280_temperature;BME280_humidity;BME280_pressure;Samples;Min_cycle;Max_cycle;Signal;HPM_P1;HPM_P2
2023/11/25 00:01:07;;;;;;;4.23;1.33;;;;;;;;;;4962141;29;20544;-85
2023/11/25 00:04:11;;;;;;;2.30;1.30;;;;;;;;;;4950578;29;20532;-86
2023/11/25 00:07:16;;;;;;;3.53;1.20;;;;;;;;;;4961202;29;20559;-85
2023/11/25 00:10:20;;;;;;;2.87;1.30;;;;;;;;;;4960745;29;20548;-86
2023/11/25 00:13:24;;;;;;;3.33;1.23;;;;;;;;;;4960359;29;20611;-85
2023/11/25 00:16:30;;;;;;;2.63;1.13;;;;;;;;;;4950124;29;20543;-84
2023/11/25 00:19:34;;;;;;;1.63;1.23;;;;;;;;;;4960436;29;20615;-84
2023/11/25 00:22:38;;;;;;;2.30;1.40;;;;;;;;;;4960396;29;20909;-84
2023/11/25 00:25:42;;;;;;;1.50;1.30;;;;;;;;;;4949787;29;20547;-86
2023/11/25 00:28:46;;;;;;;3.60;1.53;;;;;;;;;;4960054;29;20614;-84
2023/11/25 00:31:54;;;;;;;3.83;1.70;;;;;;;;;;4960853;29;20866;-85
2023/11/25 00:35:00;;;;;;;2.57;1.60;;;;;;;;;;4949757;29;20645;-85
2023/11/25 00:38:08;;;;;;;2.80;1.77;;;;;;;;;;4959408;28;20638;-84
2023/11/25 00:41:12;;;;;;;4.30;1.70;;;;;;;;;;4948473;29;20563;-85
2023/11/25 00:44:16;;;;;;;6.33;1.97;;;;;;;;;;4948446;29;20543;-85
2023/11/25 00:47:22;;;;;;;5.43;1.90;;;;;;;;;;4947977;29;20545;-85
2023/11/25 00:50:26;;;;;;;2.57;2.00;;;;;;;;;;4947553;29;20630;-85
2023/11/25 00:53:30;;;;;;;3.83;1.73;;;;;;;;;;4948003;29;20595;-84
2023/11/25 00:56:35;;;;;;;2.93;1.73;;;;;;;;;;4947726;29;20559;-85
2023/11/25 00:59:39;;;;;;;3.77;1.67;;;;;;;;;;4937081;29;20607;-85
2023/11/25 01:02:44;;;;;;;4.90;1.60;;;;;;;;;;4947814;29;20543;-86
2023/11/25 01:05:49;;;;;;;3.13;1.80;;;;;;;;;;4947674;29;20706;-86
2023/11/25 01:08:53;;;;;;;9.20;1.80;;;;;;;;;;4958764;29;20603;-84
2023/11/25 01:11:57;;;;;;;1.50;1.40;;;;;;;;;;4948195;29;20556;-84
2023/11/25 01:15:03;;;;;;;3.20;1.60;;;;;;;;;;4948880;29;20941;-85
2023/11/25 01:18:09;;;;;;;2.57;1.23;;;;;;;;;;4938101;29;20619;-84
2023/11/25 01:21:13;;;;;;;1.80;1.00;;;;;;;;;;4950011;29;20540;-84
2023/11/25 01:24:17;;;;;;;2.30;1.20;;;;;;;;;;4949185;29;20543;-84
2023/11/25 01:27:23;;;;;;;2.23;1.07;;;;;;;;;;4947560;29;20917;-84
2023/11/25 01:30:27;;;;;;;2.67;1.40;;;;;;;;;;4947560;29;21071;-84
2023/11/25 01:33:31;;;;;;;2.33;1.20;;;;;;;;;;4948951;29;20595;-85
2023/11/25 01:36:35;;;;;;;1.90;0.80;;;;;;;;;;4960286;29;20881;-85
2023/11/25 01:39:39;;;;;;;0.93;0.87;;;;;;;;;;4961153;28;20642;-85
2023/11/25 01:42:44;;;;;;;2.60;1.00;;;;;;;;;;4960331;29;20543;-85
2023/11/25 01:45:49;;;;;;;1.63;1.00;;;;;;;;;;4937597;29;20536;-85
2023/11/25 01:48:53;;;;;;;1.47;0.90;;;;;;;;;;4960305;29;20622;-85
2023/11/25 01:51:57;;;;;;;1.00;0.90;;;;;;;;;;4960105;29;20544;-85
2023/11/25 01:55:01;;;;;;;0.70;0.70;;;;;;;;;;4959338;29;20599;-84
2023/11/25 01:58:06;;;;;;;1.47;0.70;;;;;;;;;;4947660;29;20619;-85
2023/11/25 02:01:11;;;;;;;1.00;0.77;;;;;;;;;;4958398;29;20540;-85
2023/11/25 02:04:15;;;;;;;1.77;0.80;;;;;;;;;;4936900;29;20882;-85
2023/11/25 02:07:21;;;;;;;1.57;0.70;;;;;;;;;;4958309;29;20547;-84
2023/11/25 02:10:25;;;;;;;3.23;0.80;;;;;;;;;;4958773;29;20705;-84
2023/11/25 02:13:29;;;;;;;0.93;0.80;;;;;;;;;;4958332;29;20909;-84
2023/11/25 02:16:33;;;;;;;4.30;0.90;;;;;;;;;;4937489;29;20548;-84
2023/11/25 02:19:37;;;;;;;1.40;0.73;;;;;;;;;;4958165;29;20615;-84
2023/11/25 02:22:57;;;;;;;1.83;1.00;;;;;;;;;;4936130;29;20539;-85
2023/11/25 02:26:02;;;;;;;2.03;1.07;;;;;;;;;;4958166;29;20546;-84
2023/11/25 02:29:07;;;;;;;1.97;0.90;;;;;;;;;;4957593;29;20619;-84
2023/11/25 02:32:12;;;;;;;0.93;0.70;;;;;;;;;;4958196;29;20555;-84
2023/11/25 02:35:17;;;;;;;2.00;0.70;;;;;;;;;;4958607;29;20972;-85
2023/11/25 02:38:21;;;;;;;1.60;1.00;;;;;;;;;;4958808;29;21019;-84
2023/11/25 02:41:25;;;;;;;1.30;0.73;;;;;;;;;;4947449;29;20572;-86
2023/11/25 02:44:29;;;;;;;2.60;0.90;;;;;;;;;;4946296;29;20540;-85
2023/11/25 02:47:34;;;;;;;0.87;0.70;;;;;;;;;;4947091;29;20543;-85
2023/11/25 02:50:38;;;;;;;1.97;0.60;;;;;;;;;;4946832;29;20889;-85
2023/11/25 02:53:44;;;;;;;2.50;0.80;;;;;;;;;;4958231;29;20595;-84
2023/11/25 02:56:48;;;;;;;3.57;0.80;;;;;;;;;;4958330;29;20559;-86
2023/11/25 02:59:55;;;;;;;1.87;0.77;;;;;;;;;;4946772;29;20543;-86
2023/11/25 03:03:07;;;;;;;1.57;0.80;;;;;;;;;;4936168;29;20544;-85
2023/11/25 03:06:11;;;;;;;1.80;0.77;;;;;;;;;;4946822;29;20540;-84
2023/11/25 03:09:17;;;;;;;1.70;0.63;;;;;;;;;;4957639;29;20618;-86
2023/11/25 03:12:22;;;;;;;1.00;0.60;;;;;;;;;;4946738;29;20547;-85
2023/11/25 03:15:26;;;;;;;2.07;0.77;;;;;;;;;;4958605;29;20603;-86
2023/11/25 03:18:33;;;;;;;0.50;0.50;;;;;;;;;;4946442;29;20619;-84
2023/11/25 03:21:37;;;;;;;0.60;0.60;;;;;;;;;;4957813;29;20559;-85
2023/11/25 03:24:41;;;;;;;1.27;0.80;;;;;;;;;;4948676;29;20535;-86
2023/11/25 03:27:45;;;;;;;0.53;0.53;;;;;;;;;;4962880;29;20623;-85
2023/11/25 03:30:50;;;;;;;1.53;0.73;;;;;;;;;;4962533;29;20551;-85
2023/11/25 03:33:54;;;;;;;1.17;0.73;;;;;;;;;;4951426;29;20611;-86
2023/11/25 03:36:59;;;;;;;1.67;0.60;;;;;;;;;;4961882;29;20539;-86
2023/11/25 03:40:07;;;;;;;1.53;0.60;;;;;;;;;;4950686;29;20540;-84
2023/11/25 03:43:11;;;;;;;1.87;0.80;;;;;;;;;;4950639;29;20544;-85
2023/11/25 03:46:16;;;;;;;1.10;0.70;;;;;;;;;;4961821;29;20539;-85
2023/11/25 03:49:20;;;;;;;2.67;0.90;;;;;;;;;;4961738;29;20614;-85
2023/11/25 03:52:24;;;;;;;0.53;0.50;;;;;;;;;;4951104;29;21079;-84
2023/11/25 03:55:29;;;;;;;1.00;0.70;;;;;;;;;;4961729;29;20945;-85
2023/11/25 03:58:33;;;;;;;3.07;0.70;;;;;;;;;;4961685;29;21186;-85
2023/11/25 04:01:38;;;;;;;3.40;0.70;;;;;;;;;;4960945;29;20544;-86
2023/11/25 04:04:42;;;;;;;2.60;0.80;;;;;;;;;;4950725;29;20560;-85
2023/11/25 04:07:46;;;;;;;2.40;0.87;;;;;;;;;;4949959;29;20614;-84
2023/11/25 04:10:51;;;;;;;1.50;0.70;;;;;;;;;;4959533;29;20564;-87
2023/11/25 04:13:57;;;;;;;1.23;0.80;;;;;;;;;;4958759;29;20540;-86
2023/11/25 04:17:03;;;;;;;4.23;1.00;;;;;;;;;;4958635;29;20539;-87
2023/11/25 04:20:23;;;;;;;2.07;0.93;;;;;;;;;;4958368;29;20551;-87
2023/11/25 04:23:30;;;;;;;2.10;0.90;;;;;;;;;;4959023;29;20548;-87
2023/11/25 04:26:36;;;;;;;2.23;0.70;;;;;;;;;;4947571;29;20560;-87
2023/11/25 04:29:42;;;;;;;0.83;0.73;;;;;;;;;;4958895;29;20611;-87
2023/11/25 04:32:47;;;;;;;2.40;1.10;;;;;;;;;;4959347;29;20543;-87
2023/11/25 04:35:51;;;;;;;1.77;1.03;;;;;;;;;;4959046;28;20611;-87
2023/11/25 04:38:58;;;;;;;2.27;1.03;;;;;;;;;;4947191;29;20638;-86
2023/11/25 04:42:03;;;;;;;3.07;0.87;;;;;;;;;;4947771;29;20560;-86
2023/11/25 04:45:19;;;;;;;1.30;0.90;;;;;;;;;;4958601;29;20532;-86
2023/11/25 04:48:24;;;;;;;1.97;0.80;;;;;;;;;;4947184;29;20619;-87
2023/11/25 04:51:31;;;;;;;0.80;0.70;;;;;;;;;;4960118;29;20552;-87
2023/11/25 04:54:35;;;;;;;7.60;1.07;;;;;;;;;;4959111;29;20595;-86
2023/11/25 04:57:40;;;;;;;5.07;1.00;;;;;;;;;;4947006;29;20615;-86
2023/11/25 05:00:45;;;;;;;6.37;1.00;;;;;;;;;;4936462;29;20548;-86
2023/11/25 05:03:50;;;;;;;7.07;0.90;;;;;;;;;;4958179;29;20903;-87
2023/11/25 05:06:54;;;;;;;3.77;0.80;;;;;;;;;;4959235;29;20540;-87
2023/11/25 05:09:58;;;;;;;1.87;1.00;;;;;;;;;;4947139;29;20547;-86
2023/11/25 05:13:02;;;;;;;2.27;0.80;;;;;;;;;;4959742;29;20544;-87
2023/11/25 05:16:07;;;;;;;3.03;0.80;;;;;;;;;;4957557;29;20600;-87
2023/11/25 05:19:11;;;;;;;2.10;0.90;;;;;;;;;;4947114;29;20619;-86
2023/11/25 05:22:15;;;;;;;2.80;0.97;;;;;;;;;;4957512;29;20555;-86
2023/11/25 05:25:22;;;;;;;2.33;0.80;;;;;;;;;;4935865;29;20533;-86
2023/11/25 05:28:25;;;;;;;0.90;0.70;;;;;;;;;;4958222;29;20960;-87
2023/11/25 05:31:31;;;;;;;1.17;0.77;;;;;;;;;;4958593;29;20878;-86
2023/11/25 05:34:39;;;;;;;3.43;0.97;;;;;;;;;;4947081;29;20611;-86
2023/11/25 05:37:44;;;;;;;4.00;0.80;;;;;;;;;;4981916;23;20650;31
2023/11/25 05:40:48;;;;;;;1.90;0.80;;;;;;;;;;4928057;29;20621;-85
2023/11/25 05:43:53;;;;;;;1.67;0.90;;;;;;;;;;4919091;29;20914;-85
2023/11/25 05:46:58;;;;;;;5.50;1.03;;;;;;;;;;4907447;29;20541;-85
2023/11/25 05:50:03;;;;;;;3.10;1.10;;;;;;;;;;4928698;29;20617;-85
2023/11/25 05:53:07;;;;;;;4.03;1.00;;;;;;;;;;4896740;29;20561;-85
2023/11/25 05:56:11;;;;;;;3.63;0.73;;;;;;;;;;4896016;29;20608;-85
2023/11/25 05:59:16;;;;;;;2.67;1.00;;;;;;;;;;4907301;29;21172;-85
2023/11/25 06:02:20;;;;;;;2.60;1.03;;;;;;;;;;4917659;29;20545;-85
2023/11/25 06:05:27;;;;;;;2.50;1.00;;;;;;;;;;4895840;29;20561;-85
2023/11/25 06:08:32;;;;;;;2.93;0.70;;;;;;;;;;4917573;29;20616;-85
2023/11/25 06:11:36;;;;;;;2.33;0.60;;;;;;;;;;4896075;29;21093;-85
2023/11/25 06:14:40;;;;;;;4.63;1.10;;;;;;;;;;4885788;29;21062;-85
2023/11/25 06:17:45;;;;;;;3.07;1.17;;;;;;;;;;4918716;29;20549;-85
2023/11/25 06:20:50;;;;;;;2.33;0.83;;;;;;;;;;4918517;29;20558;-85
2023/11/25 06:23:55;;;;;;;1.80;0.80;;;;;;;;;;4917711;29;20541;-85
2023/11/25 06:26:59;;;;;;;2.13;0.90;;;;;;;;;;4917029;29;20553;-85
2023/11/25 06:30:04;;;;;;;1.70;0.83;;;;;;;;;;4917026;29;20625;-85
2023/11/25 06:33:08;;;;;;;2.80;0.90;;;;;;;;;;4905988;29;20557;-85
2023/11/25 06:36:12;;;;;;;2.93;1.20;;;;;;;;;;4927725;29;20601;-85
2023/11/25 06:39:19;;;;;;;5.20;1.70;;;;;;;;;;4905849;29;20647;-85
2023/11/25 06:42:25;;;;;;;5.77;2.10;;;;;;;;;;4916584;29;21086;-85
2023/11/25 06:45:29;;;;;;;2.83;1.07;;;;;;;;;;4917151;29;20538;-85
2023/11/25 06:48:33;;;;;;;2.00;1.30;;;;;;;;;;4916854;29;20628;-85
2023/11/25 06:51:37;;;;;;;3.70;1.30;;;;;;;;;;4905950;29;20884;-85
2023/11/25 06:54:41;;;;;;;2.53;2.17;;;;;;;;;;4906124;29;20888;-85
2023/11/25 06:57:46;;;;;;;3.23;1.80;;;;;;;;;;4895364;29;20549;-85
2023/11/25 07:00:51;;;;;;;4.73;1.20;;;;;;;;;;4898464;29;20880;-85
2023/11/25 07:03:55;;;;;;;2.80;1.60;;;;;;;;;;4921163;29;20565;-85
2023/11/25 07:06:59;;;;;;;3.70;1.50;;;;;;;;;;4898788;29;20541;-85
2023/11/25 07:10:04;;;;;;;3.13;1.73;;;;;;;;;;4920680;29;20616;-85
2023/11/25 07:13:08;;;;;;;4.20;2.30;;;;;;;;;;4920792;29;20545;-85
2023/11/25 07:16:13;;;;;;;4.33;2.60;;;;;;;;;;4909114;29;20954;-85
2023/11/25 07:19:17;;;;;;;3.97;1.60;;;;;;;;;;4899009;29;20955;-85
2023/11/25 07:22:20;;;;;;;6.03;2.37;;;;;;;;;;4919919;29;20545;-85
2023/11/25 07:25:27;;;;;;;4.80;1.67;;;;;;;;;;4920184;29;20549;-85
2023/11/25 07:28:32;;;;;;;5.00;3.07;;;;;;;;;;4909848;29;20633;-85
2023/11/25 07:31:37;;;;;;;7.20;2.80;;;;;;;;;;4931706;29;20545;-85
2023/11/25 07:34:41;;;;;;;5.57;1.93;;;;;;;;;;4920293;29;20553;-85
2023/11/25 07:37:45;;;;;;;7.60;3.60;;;;;;;;;;4920313;29;20526;-85
2023/11/25 07:40:50;;;;;;;2.10;1.63;;;;;;;;;;4921204;29;20557;-85
2023/11/25 07:43:54;;;;;;;10.73;3.13;;;;;;;;;;4920978;29;20537;-85
2023/11/25 07:47:01;;;;;;;10.37;4.70;;;;;;;;;;4921216;29;20545;-85
2023/11/25 07:50:06;;;;;;;5.80;2.33;;;;;;;;;;4919690;29;20903;-85
2023/11/25 07:53:10;;;;;;;11.93;4.93;;;;;;;;;;4919907;29;21109;-85
2023/11/25 07:56:14;;;;;;;2.77;1.70;;;;;;;;;;4908367;29;20601;-85
2023/11/25 07:59:18;;;;;;;19.40;9.63;;;;;;;;;;4908133;29;20633;-85
2023/11/25 08:02:22;;;;;;;8.50;4.93;;;;;;;;;;4908903;29;20541;-85
2023/11/25 08:05:28;;;;;;;8.83;2.87;;;;;;;;;;4897465;29;20557;-85
2023/11/25 08:08:32;;;;;;;4.73;2.90;;;;;;;;;;4919246;29;20975;-85
2023/11/25 08:11:36;;;;;;;5.17;2.30;;;;;;;;;;4919264;29;20549;-85
2023/11/25 08:14:40;;;;;;;3.70;3.00;;;;;;;;;;4897496;29;20545;-85
2023/11/25 08:17:44;;;;;;;3.90;3.03;;;;;;;;;;4897262;29;20530;-85
2023/11/25 08:20:49;;;;;;;3.53;2.10;;;;;;;;;;4919217;29;20542;-85
2023/11/25 08:23:53;;;;;;;3.47;2.10;;;;;;;;;;4900308;29;21096;-86
2023/11/25 08:26:57;;;;;;;3.57;1.90;;;;;;;;;;4900576;29;21078;-86
2023/11/25 08:30:01;;;;;;;6.00;1.57;;;;;;;;;;4921710;29;20616;-86
2023/11/25 08:33:06;;;;;;;1.97;1.83;;;;;;;;;;4889526;29;20561;-86
2023/11/25 08:36:11;;;;;;;4.70;1.40;;;;;;;;;;4923001;29;20589;-86
2023/11/25 08:39:15;;;;;;;4.40;1.70;;;;;;;;;;4900437;29;20656;-85
2023/11/25 08:42:19;;;;;;;4.67;1.43;;;;;;;;;;4922663;29;20546;-85
2023/11/25 08:45:24;;;;;;;4.50;2.20;;;;;;;;;;4900364;29;20546;-85
2023/11/25 08:48:29;;;;;;;2.80;1.13;;;;;;;;;;4921666;29;20628;-86
2023/11/25 08:51:34;;;;;;;3.53;1.47;;;;;;;;;;4921935;29;21070;-85
2023/11/25 08:54:38;;;;;;;4.87;1.60;;;;;;;;;;4900415;29;20541;-85
2023/11/25 08:57:42;;;;;;;2.70;1.53;;;;;;;;;;4921782;29;20573;-84
2023/11/25 09:00:49;;;;;;;5.17;1.67;;;;;;;;;;4888454;29;20907;-85
2023/11/25 09:03:53;;;;;;;5.67;2.40;;;;;;;;;;4920240;29;20550;-84
2023/11/25 09:06:57;;;;;;;3.63;1.80;;;;;;;;;;4919938;29;20541;-85
2023/11/25 09:10:05;;;;;;;4.63;2.23;;;;;;;;;;4896883;29;20617;-85
2023/11/25 09:13:09;;;;;;;3.37;1.97;;;;;;;;;;4929874;29;20545;-85
2023/11/25 09:16:13;;;;;;;4.30;1.40;;;;;;;;;;4908354;29;20597;-85
2023/11/25 09:19:17;;;;;;;3.17;1.33;;;;;;;;;;4918410;29;20621;-85
2023/11/25 09:22:22;;;;;;;4.83;1.30;;;;;;;;;;4918942;29;20545;-85
2023/11/25 09:25:26;;;;;;;6.00;1.37;;;;;;;;;;4918859;29;20899;-85
2023/11/25 09:28:30;;;;;;;4.90;1.30;;;;;;;;;;4918522;29;20224;-86
2023/11/25 09:31:34;;;;;;;3.90;1.30;;;;;;;;;;4918866;29;20545;-86
2023/11/25 09:34:39;;;;;;;4.50;1.60;;;;;;;;;;4907918;29;21077;-85
2023/11/25 09:37:44;;;;;;;8.17;3.37;;;;;;;;;;4919870;29;21133;-85
2023/11/25 09:40:48;;;;;;;11.90;3.80;;;;;;;;;;4920030;29;20541;-86
2023/11/25 09:43:53;;;;;;;4.77;2.57;;;;;;;;;;4919949;29;20180;-84
2023/11/25 09:46:57;;;;;;;5.53;1.93;;;;;;;;;;4908031;29;20181;-84
2023/11/25 09:50:01;;;;;;;4.63;2.50;;;;;;;;;;4919596;29;20224;-84
2023/11/25 09:53:12;;;;;;;4.07;2.87;;;;;;;;;;4920476;29;20634;-84
2023/11/25 09:56:17;;;;;;;13.27;2.63;;;;;;;;;;4919577;29;20212;-85
2023/11/25 09:59:23;;;;;;;28.07;14.27;;;;;;;;;;4899037;29;20628;-85
2023/11/25 10:02:29;;;;;;;5.50;3.47;;;;;;;;;;4920777;29;20545;-85
2023/11/25 10:05:34;;;;;;;7.23;3.47;;;;;;;;;;4921513;29;20541;-85
2023/11/25 10:08:38;;;;;;;4.83;2.90;;;;;;;;;;4921695;29;20625;-85
2023/11/25 10:11:43;;;;;;;12.10;6.37;;;;;;;;;;4909409;29;20565;-85
2023/11/25 10:14:47;;;;;;;8.40;3.43;;;;;;;;;;4920218;29;20545;-85
2023/11/25 10:17:54;;;;;;;4.87;2.40;;;;;;;;;;4908875;29;20589;-85
2023/11/25 10:20:59;;;;;;;9.57;3.10;;;;;;;;;;4898715;29;20549;-85
2023/11/25 10:24:08;;;;;;;5.17;2.67;;;;;;;;;;4909469;29;21054;-85
2023/11/25 10:27:12;;;;;;;3.50;2.20;;;;;;;;;;4898966;29;20545;-85
2023/11/25 10:30:16;;;;;;;5.13;2.43;;;;;;;;;;4888033;29;20550;-85
2023/11/25 10:33:29;;;;;;;6.07;1.80;;;;;;;;;;4907482;29;20545;-86
2023/11/25 10:36:34;;;;;;;4.50;1.70;;;;;;;;;;4912394;29;20596;-86
2023/11/25 10:39:38;;;;;;;14.50;7.83;;;;;;;;;;4900967;29;20640;-86
2023/11/25 10:42:45;;;;;;;6.73;4.73;;;;;;;;;;4911984;29;20541;-86
2023/11/25 10:45:49;;;;;;;7.77;4.23;;;;;;;;;;4901119;29;20549;-86
2023/11/25 10:48:53;;;;;;;9.23;4.00;;;;;;;;;;4911818;29;20624;-86
2023/11/25 10:51:58;;;;;;;6.40;3.57;;;;;;;;;;4911846;29;20541;-86
2023/11/25 10:55:05;;;;;;;7.73;2.80;;;;;;;;;;4923847;29;20546;-86
2023/11/25 10:58:11;;;;;;;9.33;3.67;;;;;;;;;;4922942;29;20232;-86
2023/11/25 11:01:17;;;;;;;7.27;4.37;;;;;;;;;;4912732;29;20549;-85
2023/11/25 11:04:35;;;;;;;7.17;3.23;;;;;;;;;;4924116;29;21069;-87
2023/11/25 11:07:52;;;;;;;9.73;3.80;;;;;;;;;;4891459;29;20865;-84
2023/11/25 11:11:01;;;;;;;6.93;3.50;;;;;;;;;;4901358;29;20550;-82
2023/11/25 11:14:11;;;;;;;9.50;5.07;;;;;;;;;;4924294;29;20542;-82
2023/11/25 11:17:37;;;;;;;10.87;7.43;;;;;;;;;;4927105;29;20593;-82
2023/11/25 11:20:46;;;;;;;4.40;3.23;;;;;;;;;;4926677;29;20545;-82
2023/11/25 11:23:51;;;;;;;6.70;3.63;;;;;;;;;;4925505;29;20542;-85
2023/11/25 11:27:07;;;;;;;7.33;3.50;;;;;;;;;;4924512;29;20557;-85
2023/11/25 11:30:32;;;;;;;5.23;2.33;;;;;;;;;;4924124;29;20541;-83
2023/11/25 11:33:36;;;;;;;4.77;2.70;;;;;;;;;;4912096;29;20541;-83
2023/11/25 11:36:40;;;;;;;4.93;2.40;;;;;;;;;;4900568;29;20584;-83
2023/11/25 11:39:50;;;;;;;6.67;2.70;;;;;;;;;;4922823;29;20664;-85
2023/11/25 11:42:57;;;;;;;2.87;2.27;;;;;;;;;;4912277;29;20542;-85
2023/11/25 11:46:02;;;;;;;4.13;2.27;;;;;;;;;;4900012;29;20545;-86
2023/11/25 11:49:07;;;;;;;6.33;2.40;;;;;;;;;;4923752;29;20213;-85
2023/11/25 11:52:12;;;;;;;4.57;2.20;;;;;;;;;;4923473;29;20546;-85
2023/11/25 11:55:35;;;;;;;5.03;2.17;;;;;;;;;;4899807;29;20185;-85
2023/11/25 11:58:58;;;;;;;3.17;2.07;;;;;;;;;;4922430;29;20209;-85
2023/11/25 12:02:02;;;;;;;14.10;7.20;;;;;;;;;;4921529;29;20551;-84
2023/11/25 12:05:06;;;;;;;10.73;4.03;;;;;;;;;;4899848;29;20192;-85
2023/11/25 12:08:11;;;;;;;14.33;7.50;;;;;;;;;;4910585;29;20213;-85
2023/11/25 12:11:16;;;;;;;11.77;4.90;;;;;;;;;;4898856;29;20185;-85
2023/11/25 12:14:20;;;;;;;7.57;3.47;;;;;;;;;;4899123;29;20622;-85
2023/11/25 12:17:24;;;;;;;9.03;4.37;;;;;;;;;;4909719;29;20210;-84
2023/11/25 12:20:28;;;;;;;6.03;2.37;;;;;;;;;;4909634;29;20192;-84
2023/11/25 12:23:33;;;;;;;7.17;2.60;;;;;;;;;;4921503;29;20185;-85
2023/11/25 12:26:40;;;;;;;7.70;2.13;;;;;;;;;;4931507;29;20189;-85
2023/11/25 12:29:44;;;;;;;6.67;2.70;;;;;;;;;;4919388;29;20675;-85
2023/11/25 12:32:48;;;;;;;9.27;5.27;;;;;;;;;;4898991;29;20185;-85
2023/11/25 12:35:54;;;;;;;3.57;2.50;;;;;;;;;;4898401;29;20619;-84
2023/11/25 12:38:58;;;;;;;4.90;2.37;;;;;;;;;;4921059;29;20216;-82
2023/11/25 12:42:02;;;;;;;4.50;2.37;;;;;;;;;;4922650;29;20189;-82
2023/11/25 12:45:07;;;;;;;6.43;2.67;;;;;;;;;;4923121;29;20189;-82
2023/11/25 12:48:13;;;;;;;5.97;1.93;;;;;;;;;;4922908;29;20220;-84
2023/11/25 12:51:17;;;;;;;5.37;2.53;;;;;;;;;;4920508;29;20185;-84
2023/11/25 12:54:21;;;;;;;6.90;3.30;;;;;;;;;;4921849;29;20185;-84
2023/11/25 12:57:29;;;;;;;9.17;3.53;;;;;;;;;;4920695;29;20209;-84
2023/11/25 13:00:34;;;;;;;5.73;3.87;;;;;;;;;;4920644;29;20188;-84
2023/11/25 13:03:38;;;;;;;5.83;3.37;;;;;;;;;;4909523;29;20185;-84
2023/11/25 13:06:49;;;;;;;8.80;2.97;;;;;;;;;;4908873;29;20185;-84
2023/11/25 13:09:53;;;;;;;7.47;3.37;;;;;;;;;;4909325;29;20224;-84
2023/11/25 13:12:57;;;;;;;6.87;3.27;;;;;;;;;;4921358;29;20193;-84
2023/11/25 13:16:04;;;;;;;5.17;4.33;;;;;;;;;;4920491;29;20557;-84
2023/11/25 13:19:08;;;;;;;12.90;5.57;;;;;;;;;;4909917;29;20608;-84
2023/11/25 13:22:12;;;;;;;6.83;2.47;;;;;;;;;;4898085;29;20189;-84
2023/11/25 13:25:16;;;;;;;5.93;2.40;;;;;;;;;;4909216;29;20189;-84
2023/11/25 13:28:20;;;;;;;5.77;2.73;;;;;;;;;;4921496;29;20617;-84
2023/11/25 13:31:25;;;;;;;9.83;3.20;;;;;;;;;;4919593;29;20189;-84
2023/11/25 13:34:29;;;;;;;6.60;2.93;;;;;;;;;;4921261;29;20542;-84
2023/11/25 13:37:36;;;;;;;9.97;3.60;;;;;;;;;;4910546;29;20596;-84
2023/11/25 13:40:40;;;;;;;7.73;3.63;;;;;;;;;;4920616;29;20550;-84
2023/11/25 13:43:46;;;;;;;5.23;3.33;;;;;;;;;;4909220;29;20542;-84
2023/11/25 13:46:50;;;;;;;6.37;2.80;;;;;;;;;;4920832;29;20553;-84
2023/11/25 13:49:54;;;;;;;6.53;2.70;;;;;;;;;;4910219;29;20612;-83
2023/11/25 13:52:58;;;;;;;4.67;2.90;;;;;;;;;;4923200;29;21098;-83
2023/11/25 13:56:03;;;;;;;6.60;3.50;;;;;;;;;;4900595;29;20545;-83
2023/11/25 13:59:07;;;;;;;9.77;4.03;;;;;;;;;;4921569;29;20648;-84
2023/11/25 14:02:11;;;;;;;9.00;3.13;;;;;;;;;;4922868;29;20546;-84
2023/11/25 14:05:15;;;;;;;6.40;3.67;;;;;;;;;;4923859;29;20538;-84
2023/11/25 14:08:26;;;;;;;10.90;2.80;;;;;;;;;;4912157;29;20610;-84
2023/11/25 14:11:31;;;;;;;7.43;2.60;;;;;;;;;;4924643;29;20561;-84
2023/11/25 14:14:35;;;;;;;10.33;3.53;;;;;;;;;;4923564;29;20541;-84
2023/11/25 14:17:39;;;;;;;7.60;3.83;;;;;;;;;;4899173;29;20608;-85
2023/11/25 14:20:44;;;;;;;7.23;3.63;;;;;;;;;;4920629;29;20561;-85
2023/11/25 14:23:48;;;;;;;6.37;3.40;;;;;;;;;;4921554;29;20557;-84
2023/11/25 14:26:52;;;;;;;6.80;2.90;;;;;;;;;;4923273;29;20542;-84
2023/11/25 14:29:56;;;;;;;7.73;2.70;;;;;;;;;;4893159;29;20613;-84
2023/11/25 14:33:03;;;;;;;7.60;2.10;;;;;;;;;;4907945;29;20550;-86
2023/11/25 14:36:11;;;;;;;9.10;2.87;;;;;;;;;;4918957;29;20545;-86
2023/11/25 14:39:18;;;;;;;7.10;3.40;;;;;;;;;;4898135;29;20668;-86
2023/11/25 14:42:23;;;;;;;10.60;3.57;;;;;;;;;;4888250;29;20553;-85
2023/11/25 14:45:28;;;;;;;10.20;3.63;;;;;;;;;;4905008;29;20541;-85
2023/11/25 14:48:33;;;;;;;9.47;3.67;;;;;;;;;;4925611;29;20616;-85
2023/11/25 14:51:37;;;;;;;9.60;3.57;;;;;;;;;;4925477;29;20545;-86
2023/11/25 14:54:43;;;;;;;8.20;2.60;;;;;;;;;;4920744;29;20541;-86
2023/11/25 14:57:47;;;;;;;9.17;3.50;;;;;;;;;;4898124;29;20597;-86
2023/11/25 15:00:52;;;;;;;7.53;4.63;;;;;;;;;;4931410;29;20549;-86
2023/11/25 15:03:56;;;;;;;31.53;16.80;;;;;;;;;;4889373;29;20561;-85
2023/11/25 15:07:00;;;;;;;9.17;3.03;;;;;;;;;;4898901;29;20545;-85
2023/11/25 15:10:04;;;;;;;5.50;2.50;;;;;;;;;;4921430;29;21201;-85
2023/11/25 15:13:09;;;;;;;5.03;2.33;;;;;;;;;;4923901;29;20549;-84
2023/11/25 15:16:14;;;;;;;4.73;2.60;;;;;;;;;;4901364;29;20546;-85
2023/11/25 15:19:19;;;;;;;9.50;2.70;;;;;;;;;;4921792;29;20657;-85
2023/11/25 15:22:23;;;;;;;7.10;2.50;;;;;;;;;;4903757;29;20553;-85
2023/11/25 15:25:27;;;;;;;4.27;2.50;;;;;;;;;;4914506;29;20545;-84
2023/11/25 15:28:31;;;;;;;6.70;3.07;;;;;;;;;;4924194;29;21192;-86
2023/11/25 15:31:35;;;;;;;5.20;2.40;;;;;;;;;;4912262;29;20541;-85
2023/11/25 15:34:39;;;;;;;5.90;2.43;;;;;;;;;;4912692;29;20545;-85
2023/11/25 15:37:46;;;;;;;9.97;3.30;;;;;;;;;;4911487;29;20592;-85
2023/11/25 15:40:50;;;;;;;4.80;2.40;;;;;;;;;;4924822;29;20537;-85
2023/11/25 15:43:55;;;;;;;8.87;5.03;;;;;;;;;;4924985;29;20549;-85
2023/11/25 15:46:59;;;;;;;4.73;2.53;;;;;;;;;;4903277;29;20549;-85
2023/11/25 15:50:04;;;;;;;3.53;2.00;;;;;;;;;;4912657;29;20609;-85
2023/11/25 15:53:12;;;;;;;6.87;2.27;;;;;;;;;;4913113;29;20545;-85
2023/11/25 15:56:17;;;;;;;4.50;2.23;;;;;;;;;;4924097;29;20557;-85
2023/11/25 15:59:24;;;;;;;6.30;2.10;;;;;;;;;;4891178;29;20656;-85
2023/11/25 16:02:28;;;;;;;6.37;2.10;;;;;;;;;;4902143;29;20545;-85
2023/11/25 16:05:32;;;;;;;5.03;1.87;;;;;;;;;;4923384;29;20542;-84
2023/11/25 16:08:37;;;;;;;5.30;1.90;;;;;;;;;;4901928;29;20625;-84
2023/11/25 16:11:41;;;;;;;7.80;2.07;;;;;;;;;;4923695;29;20542;-85
2023/11/25 16:14:46;;;;;;;6.00;2.20;;;;;;;;;;4925168;29;20545;-84
2023/11/25 16:17:50;;;;;;;5.27;2.37;;;;;;;;;;4923688;29;20596;-84
2023/11/25 16:20:56;;;;;;;8.77;2.47;;;;;;;;;;4902531;29;20545;-85
2023/11/25 16:24:00;;;;;;;5.33;3.10;;;;;;;;;;4912682;29;20547;-84
2023/11/25 16:27:04;;;;;;;7.10;2.23;;;;;;;;;;4901557;29;20549;-84
2023/11/25 16:30:13;;;;;;;9.50;2.53;;;;;;;;;;4900429;29;20546;-84
2023/11/25 16:33:17;;;;;;;4.83;2.53;;;;;;;;;;4921647;29;21067;-84
2023/11/25 16:36:21;;;;;;;5.83;2.90;;;;;;;;;;4912496;29;20545;-84
2023/11/25 16:39:26;;;;;;;6.10;2.10;;;;;;;;;;4912135;29;21038;-85
2023/11/25 16:42:30;;;;;;;7.27;2.70;;;;;;;;;;4923008;29;20561;-84
2023/11/25 16:45:34;;;;;;;6.60;2.57;;;;;;;;;;4924328;29;20545;-84
2023/11/25 16:48:38;;;;;;;8.70;2.90;;;;;;;;;;4900332;29;20617;-85
2023/11/25 16:51:43;;;;;;;7.37;2.87;;;;;;;;;;4922290;29;20565;-85
2023/11/25 16:54:47;;;;;;;5.53;3.40;;;;;;;;;;4932580;29;20569;-85
2023/11/25 16:57:51;;;;;;;6.57;2.50;;;;;;;;;;4909578;29;20569;-85
2023/11/25 17:00:56;;;;;;;2.70;2.00;;;;;;;;;;4910591;29;20554;-85
2023/11/25 17:04:00;;;;;;;4.70;2.30;;;;;;;;;;4909868;29;20549;-84
2023/11/25 17:07:09;;;;;;;4.53;2.00;;;;;;;;;;4921882;29;20541;-84
2023/11/25 17:10:13;;;;;;;6.37;2.70;;;;;;;;;;4920713;29;20542;-84
2023/11/25 17:13:17;;;;;;;5.87;2.70;;;;;;;;;;4921722;29;20541;-85
2023/11/25 17:16:25;;;;;;;7.10;2.60;;;;;;;;;;4921770;29;20549;-85
2023/11/25 17:19:29;;;;;;;2.80;2.23;;;;;;;;;;4921962;29;20644;-85
2023/11/25 17:22:33;;;;;;;3.80;2.10;;;;;;;;;;4910403;29;20550;-85
2023/11/25 17:25:38;;;;;;;4.50;2.50;;;;;;;;;;4909630;29;20561;-85
2023/11/25 17:28:44;;;;;;;5.00;2.70;;;;;;;;;;4899153;29;20609;-85
2023/11/25 17:31:48;;;;;;;4.73;2.47;;;;;;;;;;4909658;29;20549;-85
2023/11/25 17:34:52;;;;;;;4.43;2.63;;;;;;;;;;4920963;29;20915;-85
2023/11/25 17:37:57;;;;;;;6.80;3.23;;;;;;;;;;4921155;29;20609;-85
2023/11/25 17:41:01;;;;;;;6.37;2.83;;;;;;;;;;4921560;29;20558;-83
2023/11/25 17:44:05;;;;;;;10.03;3.30;;;;;;;;;;4920482;29;20541;-82
2023/11/25 17:47:10;;;;;;;5.97;4.70;;;;;;;;;;4921491;29;20884;-83
2023/11/25 17:50:15;;;;;;;7.20;3.53;;;;;;;;;;4921158;29;20541;-83
2023/11/25 17:53:19;;;;;;;4.67;3.63;;;;;;;;;;4921511;29;20542;-83
2023/11/25 17:56:23;;;;;;;5.90;3.40;;;;;;;;;;4919468;29;20558;-83
2023/11/25 17:59:28;;;;;;;6.27;2.87;;;;;;;;;;4898218;29;20660;-83
2023/11/25 18:02:32;;;;;;;6.70;3.50;;;;;;;;;;4908888;29;20550;-83
2023/11/25 18:05:37;;;;;;;9.33;4.00;;;;;;;;;;4920038;29;20557;-83
2023/11/25 18:08:41;;;;;;;6.13;3.23;;;;;;;;;;4919697;29;20624;-83
2023/11/25 18:11:46;;;;;;;4.43;2.80;;;;;;;;;;4919757;29;21107;-83
2023/11/25 18:14:50;;;;;;;7.33;3.30;;;;;;;;;;4918972;29;20545;-83
2023/11/25 18:17:54;;;;;;;5.50;2.93;;;;;;;;;;4918398;29;20545;-83
2023/11/25 18:20:58;;;;;;;6.23;3.67;;;;;;;;;;4919301;29;20545;-83
2023/11/25 18:24:03;;;;;;;4.00;3.10;;;;;;;;;;4919229;29;20547;-83
2023/11/25 18:27:08;;;;;;;5.40;3.00;;;;;;;;;;4918314;29;20565;-83
2023/11/25 18:30:12;;;;;;;5.63;2.60;;;;;;;;;;4918891;29;20541;-83